Guthrie, North Dakota
Current Conditions -  °F | °C
As of 2:55 AM on Monday 24 Nov 2014 (Local Time) from K5H4 Reporting Station
Scattered Clouds Scattered Clouds  
Wind Chill: -8°   Ceiling: Unl
Heat Index:   Visibility: 10mi
Dew Point:   Wind: 14mph
Humidity: 85%   Direction: 320°NW
Pressure: 29.73"   Gusts: 23mph
Location:  47.8494°N, 100.392°W
Report Text: K5H4 240855Z AUTO 32012G20KT 10SM SCT003 M13/M15 A2973 RMK AO2
Loading
Personal Weather Stations






























Interactive Weather Map New forecast layout! Learn more

10-Day Weather Forecast

Advertisements
Track Severe Weather on mobile